createdAt,value
2022-08-30T03:52:45.325Z,23.8
2022-08-30T03:58:35.831Z,23.8
2022-08-30T04:03:57.734Z,23.7
2022-08-30T04:09:40.049Z,23.6
2022-08-30T04:14:54.516Z,23.6
2022-08-30T04:20:16.229Z,23.6
2022-08-30T04:25:48.733Z,23.5
2022-08-30T04:31:19.745Z,23.4
2022-08-30T04:36:57.744Z,23.4
2022-08-30T04:42:37.519Z,23.4
2022-08-30T04:48:14.908Z,23.4
2022-08-30T04:53:37.749Z,23.3
2022-08-30T04:59:15.907Z,23.3
2022-08-30T05:05:05.270Z,23.3
2022-08-30T05:10:44.658Z,23.3
2022-08-30T05:16:27.310Z,23.3
2022-08-30T05:22:06.500Z,23.2
2022-08-30T05:27:44.512Z,23.2
2022-08-30T05:33:27.909Z,23.2
2022-08-30T05:39:05.973Z,23.1
2022-08-30T05:45:17.319Z,23.1
2022-08-30T05:50:58.464Z,23.1
2022-08-30T05:56:36.700Z,23.1
2022-08-30T06:02:14.065Z,23.1
2022-08-30T06:08:22.799Z,23.1
2022-08-30T06:14:00.042Z,23.1
2022-08-30T06:19:45.315Z,23.1
2022-08-30T06:25:58.606Z,23.1
2022-08-30T06:31:20.766Z,23
2022-08-30T06:37:24.674Z,23
2022-08-30T06:43:06.113Z,23
2022-08-30T06:48:48.252Z,23
2022-08-30T06:54:32.277Z,23
2022-08-30T07:00:17.635Z,23
2022-08-30T07:05:58.709Z,23.1
2022-08-30T07:11:45.026Z,23.1
2022-08-30T07:17:25.159Z,23.1
2022-08-30T07:23:13.609Z,23.1
2022-08-30T07:29:12.769Z,23.1
2022-08-30T07:34:54.385Z,23.1
2022-08-30T07:40:39.185Z,23.2
2022-08-30T07:46:21.690Z,23.2
2022-08-30T07:51:49.089Z,23.3
2022-08-30T07:57:28.394Z,23.3
